Reecon Whale — 9HA2885 — position and weather

sailwx.info

Track history (hours):
 
Tides and Currents Weather Stations Pressure Air Temp Water Temp Dewpoint Dewpoint Depression Visibility Wind Speed Wind Dir Waves Ship Positions

Reecon Whale

Last reported at 2017-Jan-21 08:33 UTC. Time now 2017-Jan-21 08:40 UTC.
Position N 38°27' E 015°54'.

Length 145 m; draft 6.9 m.

Type: Ship (hazmat cat D). MMSI: 256579000.

Date/timePositionNaut miles runAvg speedWind from/ knotsBaromVisibWave heightAir tempDewpointWater temp
2017-Jan-21 08:33N 38°27' E 015°54'0 0.0
2017-Jan-21 07:33N 38°27' E 015°54'0 0.0
2017-Jan-21 06:33N 38°27' E 015°54'0 0.0
2017-Jan-21 05:24N 38°27' E 015°54'0 0.0
2017-Jan-21 04:33N 38°27' E 015°54'0 0.0
2017-Jan-21 03:30N 38°27' E 015°54'0 0.0
2017-Jan-21 02:33N 38°27' E 015°54'0 0.0
2017-Jan-21 01:33N 38°27' E 015°54'0 0.0
2017-Jan-21 00:33N 38°27' E 015°54'0 0.0
2017-Jan-20 23:33N 38°27' E 015°54'0 0.0
2017-Jan-20 22:33N 38°27' E 015°54'0 0.0
2017-Jan-20 21:33N 38°27' E 015°54'0 0.0
2017-Jan-20 20:33N 38°27' E 015°54'0 0.0
2017-Jan-20 19:33N 38°27' E 015°54'0 0.0
2017-Jan-20 18:33N 38°27' E 015°54'1 0.6
2017-Jan-20 17:34N 38°27' E 015°54'4 4.4
2017-Jan-20 16:33N 38°29' E 015°49'1212.4
2017-Jan-20 15:33N 38°35' E 015°35'0 0.5
2017-Jan-20 14:33N 38°35' E 015°35'1 1.2
2017-Jan-20 13:33N 38°34' E 015°36'1 1.2
2017-Jan-20 12:33N 38°33' E 015°37'2 1.5
2017-Jan-20 11:33N 38°32' E 015°38'1 1.3
2017-Jan-20 10:33N 38°31' E 015°39'1 1.0
2017-Jan-20 09:32N 38°30' E 015°40'1 0.8
2017-Jan-20 08:33N 38°30' E 015°41'6 6.0
2017-Jan-20 07:33N 38°34' E 015°35'6 6.2
2017-Jan-20 06:33N 38°40' E 015°32'1 0.9
2017-Jan-20 05:33N 38°39' E 015°33'1 0.9
2017-Jan-20 04:33N 38°38' E 015°33'1 1.0
2017-Jan-20 03:33N 38°37' E 015°34'1 0.7
2017-Jan-20 02:33N 38°37' E 015°34'1 0.7
2017-Jan-20 01:33N 38°36' E 015°35'1 0.6
2017-Jan-20 00:33N 38°36' E 015°35'1 0.6
2017-Jan-19 23:33N 38°35' E 015°36'1 0.7
2017-Jan-19 22:33N 38°35' E 015°36'1 1.0
2017-Jan-19 21:33N 38°34' E 015°35'1 1.3
2017-Jan-19 20:33N 38°32' E 015°34'2 1.8
2017-Jan-19 19:33N 38°31' E 015°33'2 2.0
2017-Jan-19 18:33N 38°30' E 015°31'7 6.7
2017-Jan-19 17:33N 38°31' E 015°39'4 4.4
2017-Jan-19 16:33N 38°32' E 015°45'1 0.8
2017-Jan-19 15:33N 38°32' E 015°44'1 0.8
2017-Jan-19 14:33N 38°31' E 015°43'1 0.8
2017-Jan-19 13:33N 38°31' E 015°42'1 0.8
2017-Jan-19 12:33N 38°30' E 015°41'1 0.9
2017-Jan-19 11:33N 38°30' E 015°41'1 1.1
2017-Jan-19 10:33N 38°30' E 015°39'5 4.6
2017-Jan-19 09:33N 38°25' E 015°39'1413.8
2017-Jan-19 08:33N 38°12' E 015°37'1515.0
2017-Jan-19 07:33N 37°57' E 015°40'38111.9
2017-Jan-17 23:34N 37°23' E 023°39'1413.9
2017-Jan-17 22:33N 37°36' E 023°41'1413.9
2017-Jan-17 21:34N 37°50' E 023°36'4 3.4
2017-Jan-17 20:32N 37°52' E 023°32'0 0.0
2017-Jan-17 19:32N 37°52' E 023°32'0 0.0
2017-Jan-17 18:32N 37°52' E 023°32'0 0.0
2017-Jan-17 17:33N 37°52' E 023°32'0 0.0
2017-Jan-17 16:32N 37°52' E 023°32'0 0.0
2017-Jan-17 15:32N 37°52' E 023°32'0 0.0
2017-Jan-17 14:32N 37°52' E 023°32'0 0.0
2017-Jan-17 13:32N 37°52' E 023°32'0 0.0
2017-Jan-17 12:32N 37°52' E 023°32'0 0.1
2017-Jan-17 11:32N 37°52' E 023°32'0 0.0
2017-Jan-17 10:33N 37°52' E 023°32'0 0.0
2017-Jan-17 09:32N 37°52' E 023°32'0 0.1
2017-Jan-17 08:32N 37°52' E 023°32'0 0.0
2017-Jan-17 07:32N 37°52' E 023°32'0 0.2
2017-Jan-17 06:32N 37°52' E 023°32'0 0.0
2017-Jan-17 05:32N 37°52' E 023°32'0 0.0
2017-Jan-17 04:32N 37°52' E 023°32'0 0.0
2017-Jan-17 03:32N 37°52' E 023°32'4 3.8
2017-Jan-17 02:33N 37°52' E 023°37'1212.0
2017-Jan-17 01:33N 37°42' E 023°45'1212.1
2017-Jan-17 00:33N 37°36' E 023°59'  
2017-Jan-14 18:28N 37°47' E 025°29'1212.8
2017-Jan-14 17:33N 37°36' E 025°23'1212.6
2017-Jan-14 16:34N 37°28' E 025°11'1212.4
2017-Jan-14 15:34N 37°21' E 024°58'4012.9
2017-Jan-14 12:29N 36°57' E 024°18'1412.9
2017-Jan-14 11:24N 36°50' E 024°03'1012.0
2017-Jan-14 10:34N 36°44' E 023°53'38112.6
2017-Jan-13 04:17N 37°49' E 016°01'1013.6
2017-Jan-13 03:32N 37°51' E 015°48'1312.9
2017-Jan-13 02:33N 37°60' E 015°36'1414.0
2017-Jan-13 01:33N 38°14' E 015°36'1212.5
2017-Jan-13 00:33N 38°22' E 015°47'8 7.9
2017-Jan-12 23:33N 38°28' E 015°55'0 0.1
2017-Jan-12 21:04N 38°28' E 015°55'0 0.0
2017-Jan-12 20:31N 38°28' E 015°55'0 0.0
2017-Jan-12 19:28N 38°28' E 015°55'0 0.0
2017-Jan-12 18:19N 38°28' E 015°55'0 0.0
2017-Jan-12 17:31N 38°28' E 015°55'0 0.0
2017-Jan-12 16:25N 38°28' E 015°55'0 0.0
2017-Jan-12 15:25N 38°28' E 015°55'0 0.0
2017-Jan-12 14:31N 38°28' E 015°55'0 0.0
2017-Jan-12 13:31N 38°28' E 015°55'0 0.0
2017-Jan-12 12:28N 38°28' E 015°55'0 0.0
2017-Jan-12 11:31N 38°28' E 015°55'0 0.0
2017-Jan-12 09:22N 38°28' E 015°55'0 0.0
2017-Jan-12 07:22N 38°28' E 015°55'0 0.0
2017-Jan-12 06:07N 38°28' E 015°55'0 0.0
2017-Jan-12 05:31N 38°28' E 015°55'0 0.0
2017-Jan-12 04:16N 38°28' E 015°55'0 0.0
2017-Jan-12 02:16N 38°28' E 015°55'0 0.0
2017-Jan-12 01:31N 38°28' E 015°55'0 0.0
2017-Jan-12 00:31N 38°28' E 015°55'2 1.8
2017-Jan-11 23:33N 38°27' E 015°53'1 1.2
2017-Jan-11 22:33N 38°27' E 015°51'2 1.9
2017-Jan-11 21:34N 38°27' E 015°49'1 0.8
2017-Jan-11 20:33N 38°27' E 015°49'1 0.5
2017-Jan-11 19:33N 38°28' E 015°49'6 5.7
2017-Jan-11 18:33N 38°31' E 015°42'1 1.2
2017-Jan-11 17:33N 38°31' E 015°41'0 0.5
2017-Jan-11 16:33N 38°32' E 015°41'0 0.3
2017-Jan-11 15:33N 38°32' E 015°41'0 0.2
2017-Jan-11 14:33N 38°32' E 015°40'0 0.1
2017-Jan-11 13:33N 38°32' E 015°40'0 0.3
2017-Jan-11 12:33N 38°32' E 015°40'0 0.4
2017-Jan-11 11:33N 38°31' E 015°41'1 0.7
2017-Jan-11 10:33N 38°31' E 015°42'1 0.7
2017-Jan-11 09:34N 38°31' E 015°43'1 0.7
2017-Jan-11 08:33N 38°31' E 015°43'  
Track history (hours):
 
Tides and Currents Weather Stations Pressure Air Temp Water Temp Dewpoint Dewpoint Depression Visibility Wind Speed Wind Dir Waves Ship Positions

Reecon Whale

Last reported at 2017-Jan-21 08:33 UTC. Time now 2017-Jan-21 08:40 UTC.
Position N 38°27' E 015°54'.

Length 145 m; draft 6.9 m.

Type: Ship (hazmat cat D). MMSI: 256579000.

Date/timePositionNaut miles runAvg speedWind from/ knotsBaromVisibWave heightAir tempDewpointWater temp
2017-Jan-21 08:33N 38°27' E 015°54'0 0.0
2017-Jan-21 07:33N 38°27' E 015°54'0 0.0
2017-Jan-21 06:33N 38°27' E 015°54'0 0.0
2017-Jan-21 05:24N 38°27' E 015°54'0 0.0
2017-Jan-21 04:33N 38°27' E 015°54'0 0.0
2017-Jan-21 03:30N 38°27' E 015°54'0 0.0
2017-Jan-21 02:33N 38°27' E 015°54'0 0.0
2017-Jan-21 01:33N 38°27' E 015°54'0 0.0
2017-Jan-21 00:33N 38°27' E 015°54'0 0.0
2017-Jan-20 23:33N 38°27' E 015°54'0 0.0
2017-Jan-20 22:33N 38°27' E 015°54'0 0.0
2017-Jan-20 21:33N 38°27' E 015°54'0 0.0
2017-Jan-20 20:33N 38°27' E 015°54'0 0.0
2017-Jan-20 19:33N 38°27' E 015°54'0 0.0
2017-Jan-20 18:33N 38°27' E 015°54'1 0.6
2017-Jan-20 17:34N 38°27' E 015°54'4 4.4
2017-Jan-20 16:33N 38°29' E 015°49'1212.4
2017-Jan-20 15:33N 38°35' E 015°35'0 0.5
2017-Jan-20 14:33N 38°35' E 015°35'1 1.2
2017-Jan-20 13:33N 38°34' E 015°36'1 1.2
2017-Jan-20 12:33N 38°33' E 015°37'2 1.5
2017-Jan-20 11:33N 38°32' E 015°38'1 1.3
2017-Jan-20 10:33N 38°31' E 015°39'1 1.0
2017-Jan-20 09:32N 38°30' E 015°40'1 0.8
2017-Jan-20 08:33N 38°30' E 015°41'6 6.0
2017-Jan-20 07:33N 38°34' E 015°35'6 6.2
2017-Jan-20 06:33N 38°40' E 015°32'1 0.9
2017-Jan-20 05:33N 38°39' E 015°33'1 0.9
2017-Jan-20 04:33N 38°38' E 015°33'1 1.0
2017-Jan-20 03:33N 38°37' E 015°34'1 0.7
2017-Jan-20 02:33N 38°37' E 015°34'1 0.7
2017-Jan-20 01:33N 38°36' E 015°35'1 0.6
2017-Jan-20 00:33N 38°36' E 015°35'1 0.6
2017-Jan-19 23:33N 38°35' E 015°36'1 0.7
2017-Jan-19 22:33N 38°35' E 015°36'1 1.0
2017-Jan-19 21:33N 38°34' E 015°35'1 1.3
2017-Jan-19 20:33N 38°32' E 015°34'2 1.8
2017-Jan-19 19:33N 38°31' E 015°33'2 2.0
2017-Jan-19 18:33N 38°30' E 015°31'7 6.7
2017-Jan-19 17:33N 38°31' E 015°39'4 4.4
2017-Jan-19 16:33N 38°32' E 015°45'1 0.8
2017-Jan-19 15:33N 38°32' E 015°44'1 0.8
2017-Jan-19 14:33N 38°31' E 015°43'1 0.8
2017-Jan-19 13:33N 38°31' E 015°42'1 0.8
2017-Jan-19 12:33N 38°30' E 015°41'1 0.9
2017-Jan-19 11:33N 38°30' E 015°41'1 1.1
2017-Jan-19 10:33N 38°30' E 015°39'5 4.6
2017-Jan-19 09:33N 38°25' E 015°39'1413.8
2017-Jan-19 08:33N 38°12' E 015°37'1515.0
2017-Jan-19 07:33N 37°57' E 015°40'38111.9
2017-Jan-17 23:34N 37°23' E 023°39'1413.9
2017-Jan-17 22:33N 37°36' E 023°41'1413.9
2017-Jan-17 21:34N 37°50' E 023°36'4 3.4
2017-Jan-17 20:32N 37°52' E 023°32'0 0.0
2017-Jan-17 19:32N 37°52' E 023°32'0 0.0
2017-Jan-17 18:32N 37°52' E 023°32'0 0.0
2017-Jan-17 17:33N 37°52' E 023°32'0 0.0
2017-Jan-17 16:32N 37°52' E 023°32'0 0.0
2017-Jan-17 15:32N 37°52' E 023°32'0 0.0
2017-Jan-17 14:32N 37°52' E 023°32'0 0.0
2017-Jan-17 13:32N 37°52' E 023°32'0 0.0
2017-Jan-17 12:32N 37°52' E 023°32'0 0.1
2017-Jan-17 11:32N 37°52' E 023°32'0 0.0
2017-Jan-17 10:33N 37°52' E 023°32'0 0.0
2017-Jan-17 09:32N 37°52' E 023°32'0 0.1
2017-Jan-17 08:32N 37°52' E 023°32'0 0.0
2017-Jan-17 07:32N 37°52' E 023°32'0 0.2
2017-Jan-17 06:32N 37°52' E 023°32'0 0.0
2017-Jan-17 05:32N 37°52' E 023°32'0 0.0
2017-Jan-17 04:32N 37°52' E 023°32'0 0.0
2017-Jan-17 03:32N 37°52' E 023°32'4 3.8
2017-Jan-17 02:33N 37°52' E 023°37'1212.0
2017-Jan-17 01:33N 37°42' E 023°45'1212.1
2017-Jan-17 00:33N 37°36' E 023°59'  
2017-Jan-14 18:28N 37°47' E 025°29'1212.8
2017-Jan-14 17:33N 37°36' E 025°23'1212.6
2017-Jan-14 16:34N 37°28' E 025°11'1212.4
2017-Jan-14 15:34N 37°21' E 024°58'4012.9
2017-Jan-14 12:29N 36°57' E 024°18'1412.9
2017-Jan-14 11:24N 36°50' E 024°03'1012.0
2017-Jan-14 10:34N 36°44' E 023°53'38112.6
2017-Jan-13 04:17N 37°49' E 016°01'1013.6
2017-Jan-13 03:32N 37°51' E 015°48'1312.9
2017-Jan-13 02:33N 37°60' E 015°36'1414.0
2017-Jan-13 01:33N 38°14' E 015°36'1212.5
2017-Jan-13 00:33N 38°22' E 015°47'8 7.9
2017-Jan-12 23:33N 38°28' E 015°55'0 0.1
2017-Jan-12 21:04N 38°28' E 015°55'0 0.0
2017-Jan-12 20:31N 38°28' E 015°55'0 0.0
2017-Jan-12 19:28N 38°28' E 015°55'0 0.0
2017-Jan-12 18:19N 38°28' E 015°55'0 0.0
2017-Jan-12 17:31N 38°28' E 015°55'0 0.0
2017-Jan-12 16:25N 38°28' E 015°55'0 0.0
2017-Jan-12 15:25N 38°28' E 015°55'0 0.0
2017-Jan-12 14:31N 38°28' E 015°55'0 0.0
2017-Jan-12 13:31N 38°28' E 015°55'0 0.0
2017-Jan-12 12:28N 38°28' E 015°55'0 0.0
2017-Jan-12 11:31N 38°28' E 015°55'0 0.0
2017-Jan-12 09:22N 38°28' E 015°55'0 0.0
2017-Jan-12 07:22N 38°28' E 015°55'0 0.0
2017-Jan-12 06:07N 38°28' E 015°55'0 0.0
2017-Jan-12 05:31N 38°28' E 015°55'0 0.0
2017-Jan-12 04:16N 38°28' E 015°55'0 0.0
2017-Jan-12 02:16N 38°28' E 015°55'0 0.0
2017-Jan-12 01:31N 38°28' E 015°55'0 0.0
2017-Jan-12 00:31N 38°28' E 015°55'2 1.8
2017-Jan-11 23:33N 38°27' E 015°53'1 1.2
2017-Jan-11 22:33N 38°27' E 015°51'2 1.9
2017-Jan-11 21:34N 38°27' E 015°49'1 0.8
2017-Jan-11 20:33N 38°27' E 015°49'1 0.5
2017-Jan-11 19:33N 38°28' E 015°49'6 5.7
2017-Jan-11 18:33N 38°31' E 015°42'1 1.2
2017-Jan-11 17:33N 38°31' E 015°41'0 0.5
2017-Jan-11 16:33N 38°32' E 015°41'0 0.3
2017-Jan-11 15:33N 38°32' E 015°41'0 0.2
2017-Jan-11 14:33N 38°32' E 015°40'0 0.1
2017-Jan-11 13:33N 38°32' E 015°40'0 0.3
2017-Jan-11 12:33N 38°32' E 015°40'0 0.4
2017-Jan-11 11:33N 38°31' E 015°41'1 0.7
2017-Jan-11 10:33N 38°31' E 015°42'1 0.7
2017-Jan-11 09:34N 38°31' E 015°43'1 0.7
2017-Jan-11 08:33N 38°31' E 015°43'  

Dump ship's entire track history